createdAt,value
2022-10-12T00:00:54.688Z,8.17
2022-10-12T00:03:22.858Z,7.17
2022-10-12T00:06:01.788Z,9.60
2022-10-12T00:08:29.824Z,5.93
2022-10-12T00:10:59.538Z,9.47
2022-10-12T00:13:27.575Z,8.80
2022-10-12T00:15:55.937Z,10.27
2022-10-12T00:18:24.102Z,7.47
2022-10-12T00:21:02.775Z,7.00
2022-10-12T00:23:31.574Z,8.33
2022-10-12T00:26:05.413Z,8.47
2022-10-12T00:28:34.397Z,6.60
2022-10-12T00:31:03.402Z,9.80
2022-10-12T00:33:31.247Z,12.03
2022-10-12T00:35:59.612Z,3.67
2022-10-12T00:38:27.395Z,5.00
2022-10-12T00:40:55.530Z,6.40
2022-10-12T00:43:31.741Z,6.93
2022-10-12T00:46:02.899Z,5.60
2022-10-12T00:48:31.023Z,4.10
2022-10-12T00:51:01.181Z,5.67
2022-10-12T00:53:36.435Z,6.87
2022-10-12T00:56:08.167Z,8.93
2022-10-12T00:58:38.041Z,4.03
2022-10-12T01:01:07.452Z,7.97
2022-10-12T01:03:36.641Z,8.00
2022-10-12T01:06:05.180Z,9.23
2022-10-12T01:08:33.485Z,9.30
2022-10-12T01:11:01.837Z,9.00
2022-10-12T01:13:30.882Z,4.70
2022-10-12T01:16:06.376Z,8.90
2022-10-12T01:18:41.478Z,4.13
2022-10-12T01:21:17.944Z,5.03
2022-10-12T01:24:36.191Z,6.43
2022-10-12T01:27:37.258Z,7.73
2022-10-12T01:30:23.789Z,4.90
2022-10-12T01:33:11.983Z,7.37
2022-10-12T01:35:47.282Z,4.43
2022-10-12T01:38:29.550Z,4.77
2022-10-12T01:41:04.235Z,4.47
2022-10-12T01:43:36.526Z,3.87
2022-10-12T01:46:38.105Z,11.30
2022-10-12T01:49:08.710Z,5.77
2022-10-12T01:51:46.124Z,5.87
2022-10-12T01:54:27.229Z,7.80
2022-10-12T01:56:59.608Z,10.10
2022-10-12T01:59:38.091Z,4.90
2022-10-12T02:02:18.150Z,5.80
2022-10-12T02:04:52.775Z,10.10
2022-10-12T02:07:27.735Z,7.67
2022-10-12T02:09:59.668Z,6.83
2022-10-12T02:12:30.052Z,7.37
2022-10-12T02:15:05.614Z,7.83
2022-10-12T02:17:34.503Z,7.77
2022-10-12T02:20:05.394Z,9.63
2022-10-12T02:22:39.340Z,3.83
2022-10-12T02:25:11.612Z,6.33
2022-10-12T02:27:43.616Z,5.50
2022-10-12T02:30:13.128Z,4.40
2022-10-12T02:32:47.679Z,7.03
2022-10-12T02:35:24.024Z,4.13
2022-10-12T02:37:55.966Z,5.00
2022-10-12T02:40:31.399Z,5.17
2022-10-12T02:43:10.385Z,6.23
2022-10-12T02:45:42.084Z,5.30
2022-10-12T02:48:13.017Z,5.80
2022-10-12T02:50:44.747Z,5.27
2022-10-12T02:53:13.546Z,8.50
2022-10-12T02:55:49.238Z,9.67
2022-10-12T02:58:17.704Z,6.23
2022-10-12T03:00:45.776Z,7.37
2022-10-12T03:03:14.176Z,6.97
2022-10-12T03:05:43.620Z,5.50
2022-10-12T03:08:11.596Z,6.07
2022-10-12T03:10:39.536Z,4.10
2022-10-12T03:13:07.467Z,4.77
2022-10-12T03:15:35.363Z,9.73
2022-10-12T03:18:03.349Z,8.23
2022-10-12T03:20:31.269Z,4.80
2022-10-12T03:23:00.569Z,10.43
2022-10-12T03:25:28.429Z,8.13
2022-10-12T03:27:57.056Z,8.57
2022-10-12T03:30:24.933Z,8.57
2022-10-12T03:32:52.838Z,6.43
2022-10-12T03:35:20.595Z,6.60
2022-10-12T03:37:48.408Z,6.40
2022-10-12T03:40:17.764Z,7.53
2022-10-12T03:42:45.695Z,9.83
2022-10-12T03:45:13.501Z,7.53
2022-10-12T03:47:41.581Z,7.43
2022-10-12T03:50:10.443Z,7.20
2022-10-12T03:52:38.223Z,7.37
2022-10-12T03:55:06.945Z,6.10
2022-10-12T03:57:36.350Z,8.80
2022-10-12T04:00:05.918Z,6.50
2022-10-12T04:02:33.714Z,10.63
2022-10-12T04:05:02.178Z,5.07
2022-10-12T04:07:30.007Z,7.50
2022-10-12T04:09:57.807Z,8.93
2022-10-12T04:12:25.638Z,9.80
2022-10-12T04:14:55.362Z,9.33
2022-10-12T04:17:24.034Z,8.77
2022-10-12T04:19:51.805Z,10.20
2022-10-12T04:22:19.516Z,7.00
2022-10-12T04:24:47.318Z,8.73
2022-10-12T04:27:15.116Z,7.90
2022-10-12T04:29:42.837Z,8.97
2022-10-12T04:32:12.783Z,7.57
2022-10-12T04:34:40.705Z,9.30
2022-10-12T04:37:08.498Z,10.23
2022-10-12T04:39:36.324Z,7.03
2022-10-12T04:42:04.297Z,7.63
2022-10-12T04:44:32.575Z,7.23
2022-10-12T04:47:00.465Z,10.87
2022-10-12T04:49:29.736Z,14.00
2022-10-12T04:51:57.523Z,16.03
2022-10-12T04:54:25.545Z,14.87
2022-10-12T04:56:53.343Z,12.40
2022-10-12T04:59:21.183Z,15.33
2022-10-12T05:01:48.998Z,10.60
2022-10-12T05:04:16.919Z,12.80
2022-10-12T05:06:46.027Z,13.40
2022-10-12T05:09:16.169Z,10.03
2022-10-12T05:11:45.084Z,11.00
2022-10-12T05:14:13.045Z,10.33
2022-10-12T05:16:41.012Z,12.43
2022-10-12T05:19:09.088Z,14.97
2022-10-12T05:21:37.107Z,9.10
2022-10-12T05:24:06.920Z,11.33
2022-10-12T05:26:35.001Z,11.37
2022-10-12T05:29:02.775Z,15.73
2022-10-12T05:31:30.686Z,10.13
2022-10-12T05:33:58.585Z,11.50
2022-10-12T05:36:26.748Z,8.60
2022-10-12T05:38:54.515Z,7.87
2022-10-12T05:41:23.639Z,11.67
2022-10-12T05:43:53.150Z,8.80
2022-10-12T05:46:20.937Z,12.57
2022-10-12T05:48:48.657Z,7.63
2022-10-12T05:51:16.574Z,7.63
2022-10-12T05:53:44.489Z,8.27
2022-10-12T05:56:12.303Z,8.83
2022-10-12T05:58:42.242Z,13.90
2022-10-12T06:01:11.888Z,12.73
2022-10-12T06:03:40.113Z,8.07
2022-10-12T06:06:08.855Z,9.60
2022-10-12T06:08:37.243Z,11.83
2022-10-12T06:11:05.443Z,12.40
2022-10-12T06:13:33.227Z,11.63
2022-10-12T06:16:02.563Z,11.40
2022-10-12T06:18:30.467Z,9.87
2022-10-12T06:23:46.237Z,9.37
2022-10-12T06:26:14.288Z,14.40
2022-10-12T06:28:43.429Z,10.83
2022-10-12T06:31:12.700Z,8.93
2022-10-12T06:33:40.459Z,8.60
2022-10-12T06:36:08.654Z,8.30
2022-10-12T06:38:36.441Z,7.27
2022-10-12T06:41:04.236Z,8.47
2022-10-12T06:43:32.172Z,7.37
2022-10-12T06:46:01.509Z,10.37
2022-10-12T06:48:31.201Z,6.97
2022-10-12T06:50:59.005Z,6.37
2022-10-12T06:53:28.736Z,9.73
2022-10-12T06:55:56.676Z,7.07
2022-10-12T06:58:24.499Z,5.80
2022-10-12T07:00:53.546Z,6.97
2022-10-12T07:03:21.339Z,8.43
2022-10-12T07:05:50.540Z,8.33
2022-10-12T07:08:18.555Z,12.93
2022-10-12T07:10:46.390Z,5.60
2022-10-12T07:13:14.928Z,5.50
2022-10-12T07:15:42.683Z,9.90
2022-10-12T07:18:10.541Z,7.93
2022-10-12T07:20:40.339Z,8.33
2022-10-12T07:23:09.536Z,6.20
2022-10-12T07:25:37.391Z,6.50
2022-10-12T07:28:07.921Z,4.73
2022-10-12T07:30:37.277Z,8.17
2022-10-12T07:33:05.003Z,8.10
2022-10-12T07:35:32.720Z,6.13
2022-10-12T07:38:00.506Z,5.97
2022-10-12T07:40:29.807Z,5.83
2022-10-12T07:43:15.322Z,4.80
2022-10-12T07:45:44.045Z,6.20
2022-10-12T07:48:12.073Z,5.00
2022-10-12T07:50:39.917Z,7.43
2022-10-12T07:53:07.648Z,10.03
2022-10-12T07:55:36.964Z,10.27
2022-10-12T07:58:05.308Z,6.10
2022-10-12T08:00:33.171Z,8.70
2022-10-12T08:03:00.955Z,4.77
2022-10-12T08:05:28.759Z,6.37
2022-10-12T08:07:56.598Z,8.73
2022-10-12T08:10:24.393Z,8.23
2022-10-12T08:12:53.562Z,7.90
2022-10-12T08:15:21.412Z,5.60
2022-10-12T08:17:49.222Z,6.50
2022-10-12T08:20:17.340Z,6.03
2022-10-12T08:22:45.181Z,4.57
2022-10-12T08:25:13.073Z,7.03
2022-10-12T08:27:41.284Z,9.73
2022-10-12T08:30:12.275Z,7.17
2022-10-12T08:32:40.083Z,8.00
2022-10-12T08:35:08.434Z,10.60
2022-10-12T08:37:36.448Z,6.40
2022-10-12T08:40:04.765Z,6.30
2022-10-12T08:42:42.567Z,5.17
2022-10-12T08:45:39.245Z,4.20
2022-10-12T08:48:13.512Z,7.13
2022-10-12T08:50:46.988Z,6.83
2022-10-12T08:53:19.215Z,6.50
2022-10-12T08:55:47.878Z,5.47
2022-10-12T08:58:20.604Z,8.03
2022-10-12T09:00:54.683Z,4.10
2022-10-12T09:03:39.163Z,8.27
2022-10-12T09:06:12.998Z,7.93
2022-10-12T09:08:55.160Z,7.40
2022-10-12T09:11:39.908Z,5.63
2022-10-12T09:14:11.920Z,6.70
2022-10-12T09:16:44.836Z,5.80
2022-10-12T09:19:18.248Z,4.53
2022-10-12T09:21:48.398Z,6.37
2022-10-12T09:24:20.794Z,4.37
2022-10-12T09:26:52.159Z,6.43
2022-10-12T09:29:25.529Z,5.33
2022-10-12T09:32:27.301Z,4.27
2022-10-12T09:34:57.269Z,8.73
2022-10-12T09:37:28.564Z,5.57
2022-10-12T09:39:56.884Z,4.67
2022-10-12T09:42:24.832Z,5.07
2022-10-12T09:44:58.414Z,7.10
2022-10-12T09:47:31.210Z,8.37
2022-10-12T09:50:00.770Z,7.20
2022-10-12T09:52:31.494Z,8.80
2022-10-12T09:55:03.818Z,6.37
2022-10-12T09:57:36.579Z,8.77
2022-10-12T10:00:08.605Z,7.97
2022-10-12T10:02:49.268Z,7.90
2022-10-12T10:05:26.002Z,7.60
2022-10-12T10:07:54.884Z,8.00
2022-10-12T10:10:29.570Z,7.07
2022-10-12T10:13:02.956Z,5.57
2022-10-12T10:15:33.213Z,6.77
2022-10-12T10:18:05.157Z,7.97
2022-10-12T10:20:37.628Z,11.87
2022-10-12T10:23:06.109Z,10.60
2022-10-12T10:25:35.354Z,6.30
2022-10-12T10:28:24.627Z,7.47
2022-10-12T10:31:02.835Z,7.77
2022-10-12T10:33:34.234Z,9.60
2022-10-12T10:36:06.230Z,7.60
2022-10-12T10:38:51.039Z,8.93
2022-10-12T10:41:19.844Z,7.90
2022-10-12T10:43:49.433Z,7.97
2022-10-12T10:46:23.983Z,10.17
2022-10-12T10:48:57.729Z,7.67
2022-10-12T10:51:42.623Z,8.60
2022-10-12T10:54:25.578Z,8.73
2022-10-12T10:56:57.470Z,10.83
2022-10-12T10:59:36.410Z,8.93
2022-10-12T11:02:15.650Z,8.00
2022-10-12T11:04:50.902Z,10.83
2022-10-12T11:07:25.466Z,9.00
2022-10-12T11:09:57.862Z,16.40
2022-10-12T11:12:31.440Z,9.13
2022-10-12T11:15:07.060Z,6.73
2022-10-12T11:17:38.271Z,8.80
2022-10-12T11:20:37.482Z,8.23
2022-10-12T11:23:18.015Z,7.07
2022-10-12T11:26:01.078Z,10.10
2022-10-12T11:28:32.301Z,8.87
2022-10-12T11:31:01.454Z,9.03
2022-10-12T11:33:38.250Z,9.67
2022-10-12T11:36:12.339Z,9.43
2022-10-12T11:38:45.990Z,9.67
2022-10-12T11:44:07.807Z,10.10
2022-10-12T11:46:39.566Z,10.40
2022-10-12T11:49:14.877Z,10.97
2022-10-12T11:51:48.196Z,8.83
2022-10-12T11:54:25.418Z,10.93
2022-10-12T11:57:00.303Z,9.70
2022-10-12T11:59:34.538Z,10.60
2022-10-12T12:02:14.382Z,8.53
2022-10-12T12:04:45.247Z,8.87
2022-10-12T12:07:44.428Z,9.53
2022-10-12T12:11:04.529Z,9.80
2022-10-12T12:13:33.209Z,8.50
2022-10-12T12:16:35.319Z,9.90
2022-10-12T12:19:34.415Z,9.47
2022-10-12T12:22:26.923Z,11.53
2022-10-12T12:25:16.514Z,10.47
2022-10-12T12:27:47.887Z,7.40
2022-10-12T12:30:26.163Z,10.90
2022-10-12T12:32:55.959Z,10.23
2022-10-12T12:35:28.774Z,9.57
2022-10-12T12:38:18.255Z,7.60
2022-10-12T12:41:00.204Z,11.30
2022-10-12T12:44:03.104Z,10.37
2022-10-12T12:47:45.142Z,7.47
2022-10-12T12:50:30.684Z,6.53
2022-10-12T12:53:05.084Z,9.87
2022-10-12T12:55:53.528Z,8.63
2022-10-12T12:58:38.017Z,7.80
2022-10-12T13:01:24.818Z,9.80
2022-10-12T13:04:23.734Z,6.97
2022-10-12T13:07:12.487Z,9.40
2022-10-12T13:10:06.315Z,8.93
2022-10-12T13:12:56.611Z,9.80
2022-10-12T13:15:41.950Z,11.13
2022-10-12T13:18:49.010Z,9.37
2022-10-12T13:21:20.702Z,12.43
2022-10-12T13:23:51.174Z,9.97
2022-10-12T13:26:24.418Z,9.37
2022-10-12T13:28:53.689Z,11.00
2022-10-12T13:31:28.891Z,8.40
2022-10-12T13:34:07.167Z,8.73
2022-10-12T13:36:45.755Z,9.43
2022-10-12T13:39:18.026Z,8.80
2022-10-12T13:41:47.463Z,8.50
2022-10-12T13:44:22.742Z,12.60
2022-10-12T13:46:56.324Z,7.67
2022-10-12T13:49:26.975Z,8.70
2022-10-12T13:51:57.096Z,11.00
2022-10-12T13:54:27.234Z,9.43
2022-10-12T13:57:00.062Z,8.23
2022-10-12T13:59:33.698Z,7.97
2022-10-12T14:02:04.069Z,9.97
2022-10-12T14:04:34.434Z,12.27
2022-10-12T14:07:06.426Z,9.63
2022-10-12T14:09:42.358Z,8.37
2022-10-12T14:12:11.863Z,6.47
2022-10-12T14:14:41.778Z,8.03
2022-10-12T14:17:15.881Z,11.63
2022-10-12T14:19:45.801Z,9.40
2022-10-12T14:22:19.709Z,7.83
2022-10-12T14:24:47.987Z,7.53
2022-10-12T14:27:24.779Z,8.37
2022-10-12T14:29:57.368Z,8.87
2022-10-12T14:32:45.402Z,9.30
2022-10-12T14:35:24.217Z,11.00
2022-10-12T14:38:02.016Z,9.03
2022-10-12T14:40:36.043Z,12.53
2022-10-12T14:43:07.988Z,10.43
2022-10-12T14:45:36.463Z,10.93
2022-10-12T14:48:11.072Z,7.50
2022-10-12T14:50:38.961Z,9.03
2022-10-12T14:53:12.849Z,7.03
2022-10-12T14:55:41.721Z,9.33
2022-10-12T14:58:15.914Z,7.63
2022-10-12T15:00:44.581Z,9.57
2022-10-12T15:03:13.922Z,8.83
2022-10-12T15:05:41.990Z,9.97
2022-10-12T15:08:10.535Z,7.53
2022-10-12T15:10:38.893Z,8.03
2022-10-12T15:13:06.894Z,7.17
2022-10-12T15:15:42.204Z,9.67
2022-10-12T15:18:10.976Z,8.93
2022-10-12T15:20:43.249Z,10.43
2022-10-12T15:23:15.130Z,8.03
2022-10-12T15:25:47.042Z,8.20
2022-10-12T15:28:15.204Z,9.10
2022-10-12T15:31:11.833Z,11.90
2022-10-12T15:33:31.524Z,8.33
2022-10-12T15:36:01.221Z,8.10
2022-10-12T15:38:29.028Z,8.20
2022-10-12T15:40:58.207Z,9.63
2022-10-12T15:43:26.627Z,12.43
2022-10-12T15:45:56.377Z,11.10
2022-10-12T15:48:24.289Z,7.43
2022-10-12T15:50:52.479Z,9.03
2022-10-12T15:53:24.377Z,6.40
2022-10-12T15:55:52.500Z,8.40
2022-10-12T15:58:20.468Z,11.30
2022-10-12T16:00:48.733Z,7.77
2022-10-12T16:03:24.250Z,10.90
2022-10-12T16:05:53.421Z,7.20
2022-10-12T16:08:22.922Z,12.30
2022-10-12T16:10:51.036Z,10.43
2022-10-12T16:13:19.032Z,11.23
2022-10-12T16:15:47.029Z,11.40
2022-10-12T16:18:16.027Z,8.93
2022-10-12T16:20:46.625Z,13.10
2022-10-12T16:23:21.155Z,10.50
2022-10-12T16:25:50.837Z,9.57
2022-10-12T16:28:18.825Z,9.90
2022-10-12T16:30:47.086Z,10.73
2022-10-12T16:33:14.994Z,12.00
2022-10-12T16:35:43.816Z,12.47
2022-10-12T16:38:11.955Z,14.77
2022-10-12T16:40:41.605Z,12.20
2022-10-12T16:43:11.458Z,12.00
2022-10-12T16:45:39.587Z,12.57
2022-10-12T16:48:07.828Z,11.73
2022-10-12T16:50:39.973Z,11.60
2022-10-12T16:53:08.977Z,10.07
2022-10-12T16:55:39.059Z,13.30
2022-10-12T16:58:06.842Z,16.13
2022-10-12T17:00:36.883Z,10.20
2022-10-12T17:03:05.587Z,21.00
2022-10-12T17:05:33.723Z,13.27
2022-10-12T17:08:01.652Z,12.13
2022-10-12T17:10:30.030Z,9.90
2022-10-12T17:12:57.850Z,11.53
2022-10-12T17:15:25.791Z,13.40
2022-10-12T17:17:56.233Z,13.70
2022-10-12T17:20:24.141Z,10.60
2022-10-12T17:22:52.204Z,15.53
2022-10-12T17:25:20.162Z,12.83
2022-10-12T17:27:48.047Z,10.47
2022-10-12T17:30:16.159Z,12.40
2022-10-12T17:32:44.524Z,14.87
2022-10-12T17:35:13.912Z,14.97
2022-10-12T17:37:41.948Z,13.27
2022-10-12T17:40:11.431Z,14.17
2022-10-12T17:42:39.374Z,17.07
2022-10-12T17:45:08.869Z,14.00
2022-10-12T17:47:36.832Z,15.20
2022-10-12T17:50:05.255Z,14.37
2022-10-12T17:52:39.329Z,17.90
2022-10-12T17:55:19.206Z,11.47
2022-10-12T17:57:55.705Z,11.80
2022-10-12T18:00:23.681Z,12.07
2022-10-12T18:02:51.649Z,11.97
2022-10-12T18:05:19.477Z,12.17
2022-10-12T18:07:48.695Z,11.53
2022-10-12T18:10:17.167Z,14.97
2022-10-12T18:12:45.459Z,12.43
2022-10-12T18:15:13.325Z,14.07
2022-10-12T18:17:41.179Z,10.50
2022-10-12T18:20:10.307Z,17.13
2022-10-12T18:22:38.273Z,16.70
2022-10-12T18:25:08.698Z,16.13
2022-10-12T18:27:36.547Z,13.73
2022-10-12T18:30:06.032Z,12.00
2022-10-12T18:32:34.130Z,11.63
2022-10-12T18:35:02.112Z,12.93
2022-10-12T18:37:30.145Z,12.67
2022-10-12T18:39:58.354Z,14.97
2022-10-12T18:42:27.640Z,16.33
2022-10-12T18:44:55.538Z,14.77
2022-10-12T18:47:24.697Z,17.10
2022-10-12T18:49:52.929Z,15.73
2022-10-12T18:52:21.557Z,17.80
2022-10-12T18:54:51.487Z,15.77
2022-10-12T18:57:19.482Z,16.37
2022-10-12T18:59:50.855Z,14.83
2022-10-12T19:02:20.730Z,18.40
2022-10-12T19:04:49.505Z,15.77
2022-10-12T19:07:17.507Z,19.13
2022-10-12T19:09:45.310Z,17.87
2022-10-12T19:12:16.721Z,19.60
2022-10-12T19:14:45.022Z,21.10
2022-10-12T19:17:14.416Z,23.37
2022-10-12T19:19:42.329Z,20.20
2022-10-12T19:22:10.607Z,22.00
2022-10-12T19:24:38.846Z,24.90
2022-10-12T19:27:06.751Z,20.77
2022-10-12T19:29:34.688Z,22.07
2022-10-12T19:32:02.591Z,21.70
2022-10-12T19:34:31.888Z,21.17
2022-10-12T19:37:00.603Z,22.30
2022-10-12T19:39:28.670Z,21.67
2022-10-12T19:41:56.487Z,25.03
2022-10-12T19:44:24.359Z,21.37
2022-10-12T19:46:53.593Z,27.93
2022-10-12T19:49:21.824Z,22.83
2022-10-12T19:51:50.962Z,27.73
2022-10-12T19:54:19.712Z,34.53
2022-10-12T19:56:47.717Z,29.63
2022-10-12T19:59:15.563Z,25.10
2022-10-12T20:01:47.867Z,24.10
2022-10-12T20:04:15.697Z,25.27
2022-10-12T20:06:44.075Z,20.37
2022-10-12T20:09:13.539Z,26.57
2022-10-12T20:11:41.519Z,22.73
2022-10-12T20:14:09.556Z,25.67
2022-10-12T20:16:38.091Z,20.50
2022-10-12T20:19:07.459Z,25.50
2022-10-12T20:21:36.705Z,21.63
2022-10-12T20:24:05.101Z,22.87
2022-10-12T20:26:34.303Z,24.50
2022-10-12T20:29:02.210Z,24.87
2022-10-12T20:31:30.542Z,27.37
2022-10-12T20:33:58.698Z,23.03
2022-10-12T20:36:28.737Z,22.27
2022-10-12T20:38:58.962Z,26.70
2022-10-12T20:41:27.970Z,23.27
2022-10-12T20:43:58.848Z,25.47
2022-10-12T20:46:27.670Z,23.00
2022-10-12T20:48:59.191Z,24.40
2022-10-12T20:51:29.102Z,25.13
2022-10-12T20:54:01.680Z,26.07
2022-10-12T20:56:36.143Z,22.67
2022-10-12T20:59:10.054Z,24.47
2022-10-12T21:01:44.050Z,24.77
2022-10-12T21:04:15.281Z,24.60
2022-10-12T21:06:43.339Z,20.67
2022-10-12T21:09:15.225Z,21.37
2022-10-12T21:11:45.036Z,22.67
2022-10-12T21:14:15.100Z,23.13
2022-10-12T21:16:44.471Z,22.17
2022-10-12T21:19:17.564Z,21.83
2022-10-12T21:21:46.675Z,20.43
2022-10-12T21:24:15.494Z,20.33
2022-10-12T21:26:43.888Z,23.73
2022-10-12T21:29:16.757Z,21.93
2022-10-12T21:31:44.835Z,22.50
2022-10-12T21:34:13.504Z,23.03
2022-10-12T21:36:41.711Z,27.97
2022-10-12T21:39:15.760Z,23.63
2022-10-12T21:41:44.504Z,23.63
2022-10-12T21:44:12.942Z,25.00
2022-10-12T21:46:42.374Z,25.03
2022-10-12T21:49:12.024Z,22.63
2022-10-12T21:51:45.604Z,23.83
2022-10-12T21:54:14.040Z,23.50
2022-10-12T21:56:42.655Z,31.03
2022-10-12T21:59:11.138Z,23.90
2022-10-12T22:01:42.006Z,24.83
2022-10-12T22:04:14.134Z,25.47
2022-10-12T22:06:43.239Z,21.30
2022-10-12T22:09:16.263Z,25.10
2022-10-12T22:11:44.528Z,26.63
2022-10-12T22:14:14.513Z,26.00
2022-10-12T22:16:44.560Z,24.50
2022-10-12T22:19:18.644Z,26.77
2022-10-12T22:21:47.869Z,27.57
2022-10-12T22:24:15.676Z,25.87
2022-10-12T22:26:43.959Z,25.40
2022-10-12T22:29:12.000Z,31.23
2022-10-12T22:31:41.721Z,31.10
2022-10-12T22:34:11.541Z,28.50
2022-10-12T22:36:39.842Z,26.30
2022-10-12T22:39:07.712Z,24.93
2022-10-12T22:41:38.841Z,25.77
2022-10-12T22:44:08.131Z,26.30
2022-10-12T22:46:36.283Z,30.87
2022-10-12T22:49:07.262Z,32.63
2022-10-12T22:51:40.426Z,25.30
2022-10-12T22:54:09.324Z,31.90
2022-10-12T22:56:40.566Z,31.43
2022-10-12T22:59:08.623Z,29.60
2022-10-12T23:01:36.940Z,29.43
2022-10-12T23:04:05.288Z,27.00
2022-10-12T23:06:33.199Z,28.00
2022-10-12T23:09:02.966Z,27.90
2022-10-12T23:11:31.615Z,24.80
2022-10-12T23:14:00.251Z,26.53
2022-10-12T23:16:30.550Z,27.23
2022-10-12T23:19:00.849Z,31.07
2022-10-12T23:21:29.647Z,31.43
2022-10-12T23:23:59.448Z,32.97
2022-10-12T23:26:29.923Z,48.70
2022-10-12T23:28:58.866Z,41.80
2022-10-12T23:31:29.138Z,35.43
2022-10-12T23:33:58.077Z,31.77
2022-10-12T23:36:26.201Z,38.73
2022-10-12T23:38:55.289Z,36.23
2022-10-12T23:41:23.711Z,38.33
2022-10-12T23:43:53.286Z,35.70
2022-10-12T23:46:21.223Z,38.13
2022-10-12T23:48:49.193Z,37.73
2022-10-12T23:51:17.159Z,35.53
2022-10-12T23:53:48.283Z,31.97
2022-10-12T23:56:18.028Z,29.70
2022-10-12T23:58:46.050Z,28.93
